Jacobus — OR3790 — position and weather

sailwx.info

Track history (hours):
 
Tides and Currents Weather Stations Pressure Air Temp Water Temp Dewpoint Dewpoint Depression Visibility Wind Speed Wind Dir Waves Ship Positions

Jacobus

Last reported at 2014-Aug-22 15:21 UTC. Time now 2014-Aug-29 08:05 UTC.
Position N 47°28' W 003°02'.

Length 17 m.

Type: Pleasure craft. MMSI: 205379010.

Date/timePositionNaut miles runAvg speedWind from/ knotsBaromVisibWave heightAir tempDewpointWater temp
2014-Aug-22 15:21N 47°28' W 003°02'5 6.5
2014-Aug-22 14:33N 47°33' W 003°00'  
2014-Aug-19 23:32N 47°35' W 003°01'0 0.0
2014-Aug-19 22:32N 47°35' W 003°01'0 0.0
2014-Aug-19 21:32N 47°35' W 003°01'0 0.0
2014-Aug-19 20:29N 47°35' W 003°01'0 0.0
2014-Aug-19 19:26N 47°35' W 003°01'0 0.1
2014-Aug-19 17:32N 47°35' W 003°02'5 5.2
2014-Aug-19 16:34N 47°31' W 002°57'6 5.3
2014-Aug-19 15:29N 47°36' W 002°51'0 0.0
2014-Aug-19 14:30N 47°36' W 002°51'0 0.0
2014-Aug-19 13:29N 47°36' W 002°51'0 0.0
2014-Aug-19 12:32N 47°36' W 002°51'4 3.6
2014-Aug-19 11:33N 47°33' W 002°55'5 4.6
2014-Aug-19 10:33N 47°35' W 003°01'0 0.1
2014-Aug-19 09:31N 47°35' W 003°02'0 0.0
2014-Aug-19 08:31N 47°35' W 003°02'0 0.0
2014-Aug-19 07:31N 47°35' W 003°02'0 0.0
2014-Aug-19 06:31N 47°35' W 003°02'0 0.0
2014-Aug-19 05:31N 47°35' W 003°02'0 0.0
2014-Aug-19 04:31N 47°35' W 003°02'0 0.0
2014-Aug-19 03:31N 47°35' W 003°02'0 0.0
2014-Aug-19 02:31N 47°35' W 003°02'0 0.0
2014-Aug-19 01:31N 47°35' W 003°02'0 0.0
2014-Aug-19 00:31N 47°35' W 003°02'0 0.0
2014-Aug-18 23:31N 47°35' W 003°02'0 0.0
2014-Aug-18 22:31N 47°35' W 003°02'0 0.0
2014-Aug-18 21:31N 47°35' W 003°02'0 0.0
2014-Aug-18 20:31N 47°35' W 003°02'0 0.0
2014-Aug-18 19:31N 47°35' W 003°02'0 0.0
2014-Aug-18 18:31N 47°35' W 003°02'0 0.0
2014-Aug-18 17:31N 47°35' W 003°02'0 0.0
2014-Aug-18 16:31N 47°35' W 003°02'0 0.0
2014-Aug-18 15:28N 47°35' W 003°02'0 0.0
2014-Aug-18 14:31N 47°35' W 003°02'2 2.3
2014-Aug-18 13:33N 47°33' W 003°01'5 4.6
2014-Aug-18 12:33N 47°28' W 003°02'4 3.6
2014-Aug-18 11:33N 47°25' W 003°05'2 0.1
2014-Aug-17 07:33N 47°23' W 003°06'5 4.9
2014-Aug-17 06:30N 47°28' W 003°03'2 0.2
2014-Aug-16 17:04N 47°29' W 003°06'2 3.3
2014-Aug-16 16:33N 47°31' W 003°07'0 0.5
2014-Aug-16 15:32N 47°31' W 003°07'0 0.0
2014-Aug-16 14:32N 47°31' W 003°07'0 0.0
2014-Aug-16 13:32N 47°31' W 003°07'1 0.6
2014-Aug-16 12:33N 47°31' W 003°06'3 3.4
2014-Aug-16 11:33N 47°33' W 003°01'3 2.7
2014-Aug-16 10:32N 47°35' W 003°02'0 0.0
2014-Aug-15 16:08N 47°35' W 003°02'0 0.0
2014-Aug-15 15:32N 47°35' W 003°02'0 0.0
2014-Aug-15 14:14N 47°35' W 003°02'0 0.0
2014-Aug-15 13:29N 47°35' W 003°02'0 0.0
2014-Aug-15 12:05N 47°35' W 003°02'  
Track history (hours):
 
Tides and Currents Weather Stations Pressure Air Temp Water Temp Dewpoint Dewpoint Depression Visibility Wind Speed Wind Dir Waves Ship Positions

Jacobus

Last reported at 2014-Aug-22 15:21 UTC. Time now 2014-Aug-29 08:05 UTC.
Position N 47°28' W 003°02'.

Length 17 m.

Type: Pleasure craft. MMSI: 205379010.

Date/timePositionNaut miles runAvg speedWind from/ knotsBaromVisibWave heightAir tempDewpointWater temp
2014-Aug-22 15:21N 47°28' W 003°02'5 6.5
2014-Aug-22 14:33N 47°33' W 003°00'  
2014-Aug-19 23:32N 47°35' W 003°01'0 0.0
2014-Aug-19 22:32N 47°35' W 003°01'0 0.0
2014-Aug-19 21:32N 47°35' W 003°01'0 0.0
2014-Aug-19 20:29N 47°35' W 003°01'0 0.0
2014-Aug-19 19:26N 47°35' W 003°01'0 0.1
2014-Aug-19 17:32N 47°35' W 003°02'5 5.2
2014-Aug-19 16:34N 47°31' W 002°57'6 5.3
2014-Aug-19 15:29N 47°36' W 002°51'0 0.0
2014-Aug-19 14:30N 47°36' W 002°51'0 0.0
2014-Aug-19 13:29N 47°36' W 002°51'0 0.0
2014-Aug-19 12:32N 47°36' W 002°51'4 3.6
2014-Aug-19 11:33N 47°33' W 002°55'5 4.6
2014-Aug-19 10:33N 47°35' W 003°01'0 0.1
2014-Aug-19 09:31N 47°35' W 003°02'0 0.0
2014-Aug-19 08:31N 47°35' W 003°02'0 0.0
2014-Aug-19 07:31N 47°35' W 003°02'0 0.0
2014-Aug-19 06:31N 47°35' W 003°02'0 0.0
2014-Aug-19 05:31N 47°35' W 003°02'0 0.0
2014-Aug-19 04:31N 47°35' W 003°02'0 0.0
2014-Aug-19 03:31N 47°35' W 003°02'0 0.0
2014-Aug-19 02:31N 47°35' W 003°02'0 0.0
2014-Aug-19 01:31N 47°35' W 003°02'0 0.0
2014-Aug-19 00:31N 47°35' W 003°02'0 0.0
2014-Aug-18 23:31N 47°35' W 003°02'0 0.0
2014-Aug-18 22:31N 47°35' W 003°02'0 0.0
2014-Aug-18 21:31N 47°35' W 003°02'0 0.0
2014-Aug-18 20:31N 47°35' W 003°02'0 0.0
2014-Aug-18 19:31N 47°35' W 003°02'0 0.0
2014-Aug-18 18:31N 47°35' W 003°02'0 0.0
2014-Aug-18 17:31N 47°35' W 003°02'0 0.0
2014-Aug-18 16:31N 47°35' W 003°02'0 0.0
2014-Aug-18 15:28N 47°35' W 003°02'0 0.0
2014-Aug-18 14:31N 47°35' W 003°02'2 2.3
2014-Aug-18 13:33N 47°33' W 003°01'5 4.6
2014-Aug-18 12:33N 47°28' W 003°02'4 3.6
2014-Aug-18 11:33N 47°25' W 003°05'2 0.1
2014-Aug-17 07:33N 47°23' W 003°06'5 4.9
2014-Aug-17 06:30N 47°28' W 003°03'2 0.2
2014-Aug-16 17:04N 47°29' W 003°06'2 3.3
2014-Aug-16 16:33N 47°31' W 003°07'0 0.5
2014-Aug-16 15:32N 47°31' W 003°07'0 0.0
2014-Aug-16 14:32N 47°31' W 003°07'0 0.0
2014-Aug-16 13:32N 47°31' W 003°07'1 0.6
2014-Aug-16 12:33N 47°31' W 003°06'3 3.4
2014-Aug-16 11:33N 47°33' W 003°01'3 2.7
2014-Aug-16 10:32N 47°35' W 003°02'0 0.0
2014-Aug-15 16:08N 47°35' W 003°02'0 0.0
2014-Aug-15 15:32N 47°35' W 003°02'0 0.0
2014-Aug-15 14:14N 47°35' W 003°02'0 0.0
2014-Aug-15 13:29N 47°35' W 003°02'0 0.0
2014-Aug-15 12:05N 47°35' W 003°02'  

Dump ship's entire track history